sensor_id;sensor_type;location;lat;lon;timestamp;temperature;humidity
77039;DHT22;65970;50.476;4.840;2023-04-03T00:04:40;5.30;99.90
77039;DHT22;65970;50.476;4.840;2023-04-03T00:09:40;5.30;99.90
77039;DHT22;65970;50.476;4.840;2023-04-03T00:14:41;5.20;99.90
77039;DHT22;65970;50.476;4.840;2023-04-03T00:19:42;5.20;99.90
77039;DHT22;65970;50.476;4.840;2023-04-03T00:24:42;5.20;99.90
77039;DHT22;65970;50.476;4.840;2023-04-03T00:29:43;5.10;99.90
77039;DHT22;65970;50.476;4.840;2023-04-03T00:34:43;5.00;99.90
77039;DHT22;65970;50.476;4.840;2023-04-03T00:39:44;4.90;98.30
77039;DHT22;65970;50.476;4.840;2023-04-03T00:49:45;4.80;99.90
77039;DHT22;65970;50.476;4.840;2023-04-03T00:54:47;4.80;99.90
77039;DHT22;65970;50.476;4.840;2023-04-03T00:59:52;4.80;99.90
77039;DHT22;65970;50.476;4.840;2023-04-03T01:04:55;4.80;99.90
77039;DHT22;65970;50.476;4.840;2023-04-03T01:09:58;4.70;99.90
77039;DHT22;65970;50.476;4.840;2023-04-03T01:15:04;4.70;99.90
77039;DHT22;65970;50.476;4.840;2023-04-03T01:25:27;4.50;99.90
77039;DHT22;65970;50.476;4.840;2023-04-03T01:31:09;4.60;99.90
77039;DHT22;65970;50.476;4.840;2023-04-03T01:35:59;4.70;99.90
77039;DHT22;65970;50.476;4.840;2023-04-03T01:41:00;4.80;99.90
77039;DHT22;65970;50.476;4.840;2023-04-03T01:46:00;4.70;99.90
77039;DHT22;65970;50.476;4.840;2023-04-03T01:51:01;4.80;99.90
77039;DHT22;65970;50.476;4.840;2023-04-03T01:56:01;4.80;99.90
77039;DHT22;65970;50.476;4.840;2023-04-03T02:01:02;4.70;99.90
77039;DHT22;65970;50.476;4.840;2023-04-03T02:06:03;4.70;99.90
77039;DHT22;65970;50.476;4.840;2023-04-03T02:11:03;4.70;99.90
77039;DHT22;65970;50.476;4.840;2023-04-03T02:16:10;4.60;99.90
77039;DHT22;65970;50.476;4.840;2023-04-03T02:21:11;4.60;99.90
77039;DHT22;65970;50.476;4.840;2023-04-03T02:26:13;4.50;99.90
77039;DHT22;65970;50.476;4.840;2023-04-03T02:31:16;4.50;99.90
77039;DHT22;65970;50.476;4.840;2023-04-03T02:36:17;4.50;99.90
77039;DHT22;65970;50.476;4.840;2023-04-03T02:41:18;4.50;99.90
77039;DHT22;65970;50.476;4.840;2023-04-03T02:46:18;4.40;99.90
77039;DHT22;65970;50.476;4.840;2023-04-03T02:51:19;4.40;99.90
77039;DHT22;65970;50.476;4.840;2023-04-03T02:56:19;4.30;99.90
77039;DHT22;65970;50.476;4.840;2023-04-03T03:01:20;4.30;99.90
77039;DHT22;65970;50.476;4.840;2023-04-03T03:06:21;4.20;99.90
77039;DHT22;65970;50.476;4.840;2023-04-03T03:11:21;4.30;99.90
77039;DHT22;65970;50.476;4.840;2023-04-03T03:16:22;4.20;99.90
77039;DHT22;65970;50.476;4.840;2023-04-03T03:21:22;4.20;99.90
77039;DHT22;65970;50.476;4.840;2023-04-03T03:26:23;4.20;99.90
77039;DHT22;65970;50.476;4.840;2023-04-03T03:31:24;4.20;99.90
77039;DHT22;65970;50.476;4.840;2023-04-03T03:36:24;4.10;99.90
77039;DHT22;65970;50.476;4.840;2023-04-03T03:41:25;4.10;99.90
77039;DHT22;65970;50.476;4.840;2023-04-03T03:46:25;4.10;99.90
77039;DHT22;65970;50.476;4.840;2023-04-03T03:51:26;4.10;99.90
77039;DHT22;65970;50.476;4.840;2023-04-03T03:56:26;4.00;99.90
77039;DHT22;65970;50.476;4.840;2023-04-03T04:01:27;4.00;99.90
77039;DHT22;65970;50.476;4.840;2023-04-03T04:06:28;3.90;99.50
77039;DHT22;65970;50.476;4.840;2023-04-03T04:11:28;3.90;99.90
77039;DHT22;65970;50.476;4.840;2023-04-03T04:16:29;3.90;99.90
77039;DHT22;65970;50.476;4.840;2023-04-03T04:21:29;3.80;99.90
77039;DHT22;65970;50.476;4.840;2023-04-03T04:26:30;3.80;99.70
77039;DHT22;65970;50.476;4.840;2023-04-03T04:31:30;3.80;99.00
77039;DHT22;65970;50.476;4.840;2023-04-03T04:36:31;3.80;99.90
77039;DHT22;65970;50.476;4.840;2023-04-03T04:41:32;3.70;99.90
77039;DHT22;65970;50.476;4.840;2023-04-03T04:46:33;3.80;99.90
77039;DHT22;65970;50.476;4.840;2023-04-03T04:56:43;3.70;99.90
77039;DHT22;65970;50.476;4.840;2023-04-03T05:01:44;3.70;99.90
77039;DHT22;65970;50.476;4.840;2023-04-03T05:06:45;3.70;99.90
77039;DHT22;65970;50.476;4.840;2023-04-03T05:16:55;3.70;99.90
77039;DHT22;65970;50.476;4.840;2023-04-03T05:42:37;3.70;99.90
77039;DHT22;65970;50.476;4.840;2023-04-03T06:08:20;3.70;99.90
77039;DHT22;65970;50.476;4.840;2023-04-03T07:52:17;5.10;83.00
77039;DHT22;65970;50.476;4.840;2023-04-03T07:57:17;5.30;86.90
77039;DHT22;65970;50.476;4.840;2023-04-03T08:02:18;5.40;78.80
77039;DHT22;65970;50.476;4.840;2023-04-03T08:07:19;5.50;77.80
77039;DHT22;65970;50.476;4.840;2023-04-03T08:12:19;5.70;80.80
77039;DHT22;65970;50.476;4.840;2023-04-03T08:17:20;5.80;78.10
77039;DHT22;65970;50.476;4.840;2023-04-03T08:22:20;5.90;74.50
77039;DHT22;65970;50.476;4.840;2023-04-03T08:27:21;6.00;76.50
77039;DHT22;65970;50.476;4.840;2023-04-03T08:32:21;6.10;71.70
77039;DHT22;65970;50.476;4.840;2023-04-03T08:37:22;6.30;72.00
77039;DHT22;65970;50.476;4.840;2023-04-03T08:47:39;6.60;73.70
77039;DHT22;65970;50.476;4.840;2023-04-03T08:52:48;6.70;70.80
77039;DHT22;65970;50.476;4.840;2023-04-03T08:58:03;6.90;72.50
77039;DHT22;65970;50.476;4.840;2023-04-03T09:03:04;7.00;70.20
77039;DHT22;65970;50.476;4.840;2023-04-03T09:13:30;7.20;67.90
77039;DHT22;65970;50.476;4.840;2023-04-03T09:18:38;7.30;65.90
77039;DHT22;65970;50.476;4.840;2023-04-03T09:23:54;7.40;66.70
77039;DHT22;65970;50.476;4.840;2023-04-03T09:28:59;7.50;63.20
77039;DHT22;65970;50.476;4.840;2023-04-03T09:34:05;7.70;60.10
77039;DHT22;65970;50.476;4.840;2023-04-03T09:39:13;7.70;61.30
77039;DHT22;65970;50.476;4.840;2023-04-03T09:44:23;7.80;63.50
77039;DHT22;65970;50.476;4.840;2023-04-03T09:49:24;8.10;60.70
77039;DHT22;65970;50.476;4.840;2023-04-03T09:54:36;8.10;61.80
77039;DHT22;65970;50.476;4.840;2023-04-03T09:59:45;8.30;61.60
77039;DHT22;65970;50.476;4.840;2023-04-03T10:04:46;8.40;61.60
77039;DHT22;65970;50.476;4.840;2023-04-03T10:09:55;8.50;63.00
77039;DHT22;65970;50.476;4.840;2023-04-03T10:14:58;8.70;61.50
77039;DHT22;65970;50.476;4.840;2023-04-03T10:26:00;9.30;61.90
77039;DHT22;65970;50.476;4.840;2023-04-03T10:31:13;9.70;57.30
77039;DHT22;65970;50.476;4.840;2023-04-03T10:46:48;11.00;46.00
77039;DHT22;65970;50.476;4.840;2023-04-03T10:53:08;10.80;51.20
77039;DHT22;65970;50.476;4.840;2023-04-03T10:57:37;10.80;51.20
77039;DHT22;65970;50.476;4.840;2023-04-03T11:03:05;10.80;50.80
77039;DHT22;65970;50.476;4.840;2023-04-03T11:08:12;11.00;48.20
77039;DHT22;65970;50.476;4.840;2023-04-03T11:13:24;11.10;50.00
77039;DHT22;65970;50.476;4.840;2023-04-03T11:18:44;11.20;50.00
77039;DHT22;65970;50.476;4.840;2023-04-03T11:23:47;11.40;47.60
77039;DHT22;65970;50.476;4.840;2023-04-03T11:28:53;11.80;44.80
77039;DHT22;65970;50.476;4.840;2023-04-03T11:39:16;12.10;42.20
77039;DHT22;65970;50.476;4.840;2023-04-03T11:44:37;12.50;39.70
77039;DHT22;65970;50.476;4.840;2023-04-03T11:49:52;13.00;38.10
77039;DHT22;65970;50.476;4.840;2023-04-03T11:54:53;13.20;37.60
77039;DHT22;65970;50.476;4.840;2023-04-03T11:59:54;13.20;32.60
77039;DHT22;65970;50.476;4.840;2023-04-03T12:05:28;13.40;35.00
77039;DHT22;65970;50.476;4.840;2023-04-03T12:10:29;13.50;31.00
77039;DHT22;65970;50.476;4.840;2023-04-03T12:15:51;13.80;28.10
77039;DHT22;65970;50.476;4.840;2023-04-03T12:20:55;14.30;27.10
77039;DHT22;65970;50.476;4.840;2023-04-03T12:26:03;14.40;28.10
77039;DHT22;65970;50.476;4.840;2023-04-03T12:31:04;14.70;26.00
77039;DHT22;65970;50.476;4.840;2023-04-03T12:36:18;14.80;23.30
77039;DHT22;65970;50.476;4.840;2023-04-03T12:41:36;15.00;20.70
77039;DHT22;65970;50.476;4.840;2023-04-03T12:46:42;14.80;21.60
77039;DHT22;65970;50.476;4.840;2023-04-03T12:51:46;14.80;18.50
77039;DHT22;65970;50.476;4.840;2023-04-03T12:56:47;14.90;21.20
77039;DHT22;65970;50.476;4.840;2023-04-03T13:02:02;15.00;20.60
77039;DHT22;65970;50.476;4.840;2023-04-03T13:07:02;15.10;21.50
77039;DHT22;65970;50.476;4.840;2023-04-03T13:17:11;15.10;18.90
77039;DHT22;65970;50.476;4.840;2023-04-03T13:27:24;15.30;17.90
77039;DHT22;65970;50.476;4.840;2023-04-03T13:32:27;15.40;18.80
77039;DHT22;65970;50.476;4.840;2023-04-03T13:37:30;15.40;18.10
77039;DHT22;65970;50.476;4.840;2023-04-03T13:42:33;15.30;15.30
77039;DHT22;65970;50.476;4.840;2023-04-03T13:47:39;15.30;17.40
77039;DHT22;65970;50.476;4.840;2023-04-03T13:53:00;15.20;16.80
77039;DHT22;65970;50.476;4.840;2023-04-03T13:58:24;15.00;17.90
77039;DHT22;65970;50.476;4.840;2023-04-03T14:03:30;14.90;16.80
77039;DHT22;65970;50.476;4.840;2023-04-03T14:08:32;14.90;15.30
